createdAt,value
2022-12-29T00:02:24.696Z,97041.38
2022-12-29T00:04:51.840Z,97042.88
2022-12-29T00:07:18.739Z,97048.56
2022-12-29T00:09:45.201Z,97048.72
2022-12-29T00:12:11.679Z,97050.88
2022-12-29T00:15:10.508Z,97057.72
2022-12-29T00:17:36.980Z,97054.88
2022-12-29T00:20:22.220Z,97051.97
2022-12-29T00:23:07.296Z,97060.69
2022-12-29T00:25:52.449Z,97051.97
2022-12-29T00:28:37.716Z,97055.59
2022-12-29T00:31:23.659Z,97069.72
2022-12-29T00:34:08.711Z,97070.88
2022-12-29T00:36:39.431Z,97071.25
2022-12-29T00:39:32.721Z,97075.88
2022-12-29T00:42:25.808Z,97077.41
2022-12-29T00:44:52.360Z,97069.41
2022-12-29T00:47:18.878Z,97075.00
2022-12-29T00:49:45.415Z,97071.38
2022-12-29T00:52:12.556Z,97068.13
2022-12-29T00:54:40.129Z,97070.91
2022-12-29T00:57:07.540Z,97043.47
2022-12-29T00:59:36.219Z,97054.09
2022-12-29T01:02:02.793Z,97050.53
2022-12-29T01:04:29.357Z,97058.44
2022-12-29T01:06:55.835Z,97040.63
2022-12-29T01:09:40.953Z,97045.59
2022-12-29T01:12:07.964Z,97035.19
2022-12-29T01:14:34.544Z,97049.53
2022-12-29T01:17:01.028Z,97045.44
2022-12-29T01:19:27.499Z,97050.16
2022-12-29T01:21:53.972Z,97039.56
2022-12-29T01:24:20.872Z,97034.03
2022-12-29T01:26:47.392Z,97022.72
2022-12-29T01:29:13.923Z,97036.88
2022-12-29T01:31:40.853Z,97019.28
2022-12-29T01:34:07.439Z,97019.63
2022-12-29T01:36:34.141Z,97015.31
2022-12-29T01:39:00.760Z,97007.38
2022-12-29T01:41:27.466Z,96988.88
2022-12-29T01:43:58.200Z,96988.19
2022-12-29T01:46:41.104Z,96977.28
2022-12-29T01:49:18.301Z,96986.72
2022-12-29T01:51:53.179Z,96983.25
2022-12-29T01:54:27.033Z,96982.13
2022-12-29T01:56:53.537Z,96990.41
2022-12-29T01:59:21.962Z,96990.47
2022-12-29T02:01:48.532Z,96988.06
2022-12-29T02:04:15.169Z,96993.16
2022-12-29T02:06:56.809Z,96991.34
2022-12-29T02:09:41.991Z,96979.44
2022-12-29T02:12:08.415Z,96979.50
2022-12-29T02:14:34.834Z,96964.47
2022-12-29T02:17:07.115Z,96977.47
2022-12-29T02:19:50.532Z,96972.81
2022-12-29T02:23:14.042Z,96967.47
2022-12-29T02:26:13.380Z,96959.59
2022-12-29T02:29:08.774Z,96963.25
2022-12-29T02:31:49.146Z,96956.84
2022-12-29T02:34:41.182Z,96960.78
2022-12-29T02:37:12.493Z,96955.25
2022-12-29T02:39:46.794Z,96955.75
2022-12-29T02:42:21.612Z,96959.38
2022-12-29T02:45:02.512Z,96964.47
2022-12-29T02:47:36.182Z,96965.28
2022-12-29T02:50:22.053Z,96964.47
2022-12-29T02:52:51.711Z,96971.81
2022-12-29T02:55:18.193Z,96963.66
2022-12-29T02:57:44.671Z,96961.72
2022-12-29T03:00:15.650Z,96956.91
2022-12-29T03:03:10.482Z,96965.19
2022-12-29T03:06:08.021Z,96972.69
2022-12-29T03:08:46.494Z,96964.91
2022-12-29T03:11:31.927Z,96960.53
2022-12-29T03:14:25.451Z,96963.59
2022-12-29T03:16:54.960Z,96973.19
2022-12-29T03:19:29.418Z,96956.63
2022-12-29T03:22:16.879Z,96953.84
2022-12-29T03:24:47.565Z,96943.22
2022-12-29T03:27:16.310Z,96944.84
2022-12-29T03:29:53.273Z,96936.22
2022-12-29T03:32:20.140Z,96929.63
2022-12-29T03:34:46.812Z,96934.81
2022-12-29T03:37:15.376Z,96919.81
2022-12-29T03:39:41.803Z,96929.34
2022-12-29T03:42:12.324Z,96933.78
2022-12-29T03:44:43.745Z,96921.13
2022-12-29T03:47:13.251Z,96935.50
2022-12-29T03:49:39.779Z,96928.91
2022-12-29T03:52:06.210Z,96918.28
2022-12-29T03:54:32.689Z,96911.53
2022-12-29T03:56:59.145Z,96925.25
2022-12-29T03:59:25.578Z,96895.63
2022-12-29T04:01:52.085Z,96914.63
2022-12-29T04:04:18.583Z,96909.09
2022-12-29T04:06:45.029Z,96910.38
2022-12-29T04:09:11.925Z,96900.53
2022-12-29T04:11:38.365Z,96897.34
2022-12-29T04:14:04.792Z,96886.72
2022-12-29T04:16:31.254Z,96887.19
2022-12-29T04:18:57.731Z,96890.19
2022-12-29T04:21:24.225Z,96881.09
2022-12-29T04:23:50.692Z,96876.44
2022-12-29T04:26:17.195Z,96883.38
2022-12-29T04:28:43.716Z,96876.59
2022-12-29T04:31:10.442Z,96863.53
2022-12-29T04:33:37.003Z,96853.16
2022-12-29T04:36:03.652Z,96860.22
2022-12-29T04:38:30.116Z,96855.59
2022-12-29T04:40:56.581Z,96863.22
2022-12-29T04:43:23.218Z,96862.47
2022-12-29T04:45:50.255Z,96862.47
2022-12-29T04:48:16.728Z,96864.06
2022-12-29T04:50:43.263Z,96857.16
2022-12-29T04:53:09.732Z,96848.66
2022-12-29T04:55:36.209Z,96851.47
2022-12-29T04:58:02.674Z,96851.78
2022-12-29T05:00:29.238Z,96842.75
2022-12-29T05:02:55.853Z,96839.25
2022-12-29T05:05:22.457Z,96835.34
2022-12-29T05:07:48.929Z,96838.06
2022-12-29T05:10:15.471Z,96837.75
2022-12-29T05:12:42.179Z,96837.69
2022-12-29T05:15:09.120Z,96826.53
2022-12-29T05:17:35.984Z,96830.63
2022-12-29T05:20:02.493Z,96831.44
2022-12-29T05:22:29.013Z,96838.13
2022-12-29T05:24:55.720Z,96842.44
2022-12-29T05:27:22.213Z,96848.81
2022-12-29T05:29:48.698Z,96835.25
2022-12-29T05:32:15.183Z,96836.78
2022-12-29T05:34:41.685Z,96837.91
2022-12-29T05:37:11.500Z,96828.75
2022-12-29T05:39:38.111Z,96834.66
2022-12-29T05:42:04.596Z,96838.28
2022-12-29T05:44:31.078Z,96838.28
2022-12-29T05:46:57.619Z,96831.19
2022-12-29T05:49:24.130Z,96836.72
2022-12-29T05:51:50.906Z,96835.94
2022-12-29T05:54:17.483Z,96838.72
2022-12-29T05:56:43.970Z,96833.97
2022-12-29T05:59:10.427Z,96838.34
2022-12-29T06:01:37.009Z,96815.47
2022-12-29T06:04:03.990Z,96807.59
2022-12-29T06:06:30.553Z,96820.63
2022-12-29T06:08:57.254Z,96822.53
2022-12-29T06:11:23.737Z,96825.81
2022-12-29T06:13:50.201Z,96815.56
2022-12-29T06:16:16.916Z,96815.94
2022-12-29T06:18:43.862Z,96824.66
2022-12-29T06:21:10.336Z,96820.28
2022-12-29T06:23:36.820Z,96825.50
2022-12-29T06:26:03.315Z,96832.53
2022-12-29T06:28:29.774Z,96823.38
2022-12-29T06:30:56.272Z,96836.03
2022-12-29T06:33:22.757Z,96824.66
2022-12-29T06:35:49.248Z,96827.38
2022-12-29T06:38:15.763Z,96827.38
2022-12-29T06:40:44.017Z,96836.84
2022-12-29T06:43:10.576Z,96848.66
2022-12-29T06:45:39.207Z,96829.34
2022-12-29T06:48:05.809Z,96833.53
2022-12-29T06:50:32.425Z,96826.88
2022-12-29T06:52:58.909Z,96792.97
2022-12-29T06:55:25.375Z,96815.88
2022-12-29T06:57:53.118Z,96787.03
2022-12-29T07:00:22.934Z,96780.91
2022-12-29T07:02:49.803Z,96776.28
2022-12-29T07:05:16.387Z,96791.88
2022-12-29T07:07:43.453Z,96791.44
2022-12-29T07:10:09.935Z,96796.16
2022-12-29T07:12:36.703Z,96803.63
2022-12-29T07:15:03.187Z,96815.84
2022-12-29T07:17:29.690Z,96818.94
2022-12-29T07:19:56.158Z,96834.41
2022-12-29T07:22:22.773Z,96828.13
2022-12-29T07:24:49.241Z,96833.28
2022-12-29T07:27:15.751Z,96827.88
2022-12-29T07:29:42.341Z,96820.44
2022-12-29T07:32:08.947Z,96819.97
2022-12-29T07:34:35.467Z,96820.84
2022-12-29T07:37:01.986Z,96812.19
2022-12-29T07:39:28.455Z,96800.81
2022-12-29T07:41:59.541Z,96817.88
2022-12-29T07:44:29.314Z,96809.59
2022-12-29T07:46:57.730Z,96794.97
2022-12-29T07:49:25.540Z,96813.53
2022-12-29T07:51:52.045Z,96800.88
2022-12-29T07:54:21.314Z,96788.91
2022-12-29T07:56:47.778Z,96810.63
2022-12-29T07:59:14.536Z,96808.63
2022-12-29T08:01:41.428Z,96798.75
2022-12-29T08:04:08.164Z,96804.75
2022-12-29T08:06:34.726Z,96802.34
2022-12-29T08:09:09.862Z,96826.50
2022-12-29T08:11:39.318Z,96836.59
2022-12-29T08:14:05.855Z,96836.84
2022-12-29T08:16:33.465Z,96846.28
2022-12-29T08:19:00.216Z,96860.06
2022-12-29T08:21:28.131Z,96874.97
2022-12-29T08:23:54.625Z,96872.47
2022-12-29T08:26:21.110Z,96882.41
2022-12-29T08:28:47.852Z,96893.38
2022-12-29T08:31:14.388Z,96905.81
2022-12-29T08:33:40.921Z,96911.66
2022-12-29T08:36:07.959Z,96921.59
2022-12-29T08:38:34.525Z,96911.59
2022-12-29T08:41:02.374Z,96908.34
2022-12-29T08:43:28.901Z,96919.84
2022-12-29T08:45:55.402Z,96899.41
2022-12-29T08:48:23.121Z,96904.63
2022-12-29T08:50:49.737Z,96915.91
2022-12-29T08:53:16.236Z,96910.34
2022-12-29T08:55:42.715Z,96924.91
2022-12-29T08:58:09.187Z,96931.41
2022-12-29T09:00:35.703Z,96926.50
2022-12-29T09:03:02.422Z,96934.41
2022-12-29T09:05:29.091Z,96928.41
2022-12-29T09:07:55.561Z,96932.09
2022-12-29T09:10:22.185Z,96930.19
2022-12-29T09:12:48.720Z,96932.84
2022-12-29T09:15:16.479Z,96926.13
2022-12-29T09:17:46.328Z,96933.09
2022-12-29T09:20:18.596Z,96919.31
2022-12-29T09:22:53.540Z,96915.88
2022-12-29T09:25:25.532Z,96905.69
2022-12-29T09:28:01.419Z,96919.47
2022-12-29T09:30:27.896Z,96909.63
2022-12-29T09:32:55.555Z,96905.41
2022-12-29T09:35:22.143Z,96904.81
2022-12-29T09:37:48.631Z,96911.66
2022-12-29T09:40:27.330Z,96923.25
2022-12-29T09:43:13.620Z,96925.88
2022-12-29T09:45:46.758Z,96917.94
2022-12-29T09:48:17.727Z,96924.78
2022-12-29T09:50:45.244Z,96929.09
2022-12-29T09:53:16.302Z,96930.25
2022-12-29T09:55:46.138Z,96938.50
2022-12-29T09:59:01.195Z,96924.97
2022-12-29T10:01:29.433Z,96932.13
2022-12-29T10:03:57.623Z,96937.25
2022-12-29T10:06:27.921Z,96915.88
2022-12-29T10:09:07.570Z,96932.97
2022-12-29T10:12:12.339Z,96922.63
2022-12-29T10:14:55.991Z,96925.38
2022-12-29T10:17:31.226Z,96926.13
2022-12-29T10:20:22.720Z,96917.81
2022-12-29T10:23:21.348Z,96917.91
2022-12-29T10:25:47.846Z,96919.16
2022-12-29T10:28:23.049Z,96914.66
2022-12-29T10:30:50.021Z,96909.94
2022-12-29T10:33:24.928Z,96907.56
2022-12-29T10:35:51.413Z,96920.19
2022-12-29T10:38:29.012Z,96924.97
2022-12-29T10:40:59.645Z,96914.28
2022-12-29T10:43:48.789Z,96935.94
2022-12-29T10:46:17.476Z,96930.91
2022-12-29T10:48:46.321Z,96924.44
2022-12-29T10:51:14.799Z,96930.41
2022-12-29T10:53:45.932Z,96906.69
2022-12-29T10:56:36.668Z,96926.03
2022-12-29T10:59:27.034Z,96937.53
2022-12-29T11:01:56.607Z,96922.09
2022-12-29T11:04:32.398Z,96937.56
2022-12-29T11:06:58.865Z,96941.44
2022-12-29T11:09:42.211Z,96932.28
2022-12-29T11:12:26.973Z,96937.78
2022-12-29T11:15:08.670Z,96920.25
2022-12-29T11:17:51.572Z,96925.44
2022-12-29T11:20:27.679Z,96918.03
2022-12-29T11:22:54.131Z,96932.03
2022-12-29T11:25:20.607Z,96920.91
2022-12-29T11:28:05.185Z,96916.13
2022-12-29T11:30:32.310Z,96927.22
2022-12-29T11:32:58.948Z,96930.75
2022-12-29T11:35:36.816Z,96927.53
2022-12-29T11:38:03.754Z,96931.94
2022-12-29T11:40:30.316Z,96944.16
2022-12-29T11:42:59.736Z,96941.78
2022-12-29T11:45:27.619Z,96959.59
2022-12-29T11:47:56.032Z,96932.09
2022-12-29T11:50:27.258Z,96948.34
2022-12-29T11:52:59.869Z,96938.41
2022-12-29T11:55:26.729Z,96956.56
2022-12-29T11:57:53.454Z,96946.22
2022-12-29T12:00:21.298Z,96946.22
2022-12-29T12:03:01.060Z,96952.97
2022-12-29T12:05:40.883Z,96945.00
2022-12-29T12:08:29.535Z,96953.59
2022-12-29T12:11:09.313Z,96951.66
2022-12-29T12:14:01.713Z,96960.59
2022-12-29T12:16:40.250Z,96960.69
2022-12-29T12:19:30.121Z,96967.72
2022-12-29T12:22:00.674Z,96963.41
2022-12-29T12:25:00.777Z,96958.25
2022-12-29T12:27:37.137Z,96957.06
2022-12-29T12:30:06.048Z,96948.03
2022-12-29T12:32:45.678Z,96968.31
2022-12-29T12:35:21.583Z,96971.00
2022-12-29T12:38:10.141Z,96981.38
2022-12-29T12:40:51.961Z,96961.53
2022-12-29T12:43:46.555Z,96971.03
2022-12-29T12:46:28.512Z,96962.00
2022-12-29T12:49:01.970Z,96970.59
2022-12-29T12:51:41.622Z,96962.28
2022-12-29T12:54:16.955Z,96977.72
2022-12-29T12:57:34.779Z,96963.13
2022-12-29T13:00:19.084Z,96980.09
2022-12-29T13:03:06.556Z,96962.00
2022-12-29T13:05:52.522Z,96964.41
2022-12-29T13:08:46.781Z,96958.91
2022-12-29T13:11:41.260Z,96978.25
2022-12-29T13:14:14.031Z,96981.69
2022-12-29T13:17:11.153Z,96988.03
2022-12-29T13:20:16.142Z,96982.19
2022-12-29T13:23:00.003Z,96997.53
2022-12-29T13:25:41.443Z,96997.19
2022-12-29T13:28:33.320Z,97007.75
2022-12-29T13:31:18.397Z,96999.88
2022-12-29T13:33:59.651Z,96996.72
2022-12-29T13:36:32.462Z,96996.03
2022-12-29T13:39:07.149Z,97017.56
2022-12-29T13:41:47.321Z,97019.59
2022-12-29T13:44:17.391Z,97014.41
2022-12-29T13:46:45.021Z,97016.75
2022-12-29T13:49:21.614Z,97027.25
2022-12-29T13:51:53.228Z,97014.22
2022-12-29T13:54:49.510Z,97034.31
2022-12-29T13:57:37.139Z,97036.72
2022-12-29T14:00:13.445Z,97054.09
2022-12-29T14:02:46.215Z,97057.22
2022-12-29T14:05:18.517Z,97067.78
2022-12-29T14:07:45.001Z,97066.22
2022-12-29T14:10:34.979Z,97076.19
2022-12-29T14:13:22.138Z,97072.50
2022-12-29T14:15:55.533Z,97069.66
2022-12-29T14:18:22.859Z,97076.44
2022-12-29T14:20:58.494Z,97081.47
2022-12-29T14:23:41.521Z,97096.25
2022-12-29T14:26:07.812Z,97093.97
2022-12-29T14:28:38.872Z,97103.13
2022-12-29T14:31:25.499Z,97107.69
2022-12-29T14:34:12.109Z,97109.97
2022-12-29T14:36:55.312Z,97109.88
2022-12-29T14:39:35.605Z,97111.78
2022-12-29T14:42:04.916Z,97100.47
2022-12-29T14:44:38.279Z,97110.34
2022-12-29T14:47:08.325Z,97113.06
2022-12-29T14:49:41.931Z,97127.16
2022-12-29T14:52:22.455Z,97126.28
2022-12-29T14:54:50.832Z,97117.31
2022-12-29T14:57:40.533Z,97125.59
2022-12-29T15:00:17.423Z,97123.88
2022-12-29T15:02:47.448Z,97117.56
2022-12-29T15:05:51.414Z,97131.34
2022-12-29T15:08:19.106Z,97119.22
2022-12-29T15:10:58.323Z,97122.78
2022-12-29T15:13:32.878Z,97121.25
2022-12-29T15:15:59.454Z,97137.78
2022-12-29T15:18:35.074Z,97132.94
2022-12-29T15:21:06.616Z,97135.75
2022-12-29T15:23:34.562Z,97133.25
2022-12-29T15:26:08.234Z,97141.84
2022-12-29T15:28:45.903Z,97133.63
2022-12-29T15:31:13.965Z,97148.59
2022-12-29T15:33:41.356Z,97148.25
2022-12-29T15:36:19.853Z,97154.13
2022-12-29T15:38:46.396Z,97165.56
2022-12-29T15:42:00.427Z,97169.63
2022-12-29T15:44:34.096Z,97182.56
2022-12-29T15:47:07.664Z,97170.50
2022-12-29T15:49:34.140Z,97176.31
2022-12-29T15:52:00.629Z,97180.53
2022-12-29T15:54:27.615Z,97181.28
2022-12-29T15:56:54.105Z,97180.50
2022-12-29T15:59:24.490Z,97184.69
2022-12-29T16:01:51.089Z,97180.38
2022-12-29T16:04:17.741Z,97178.81
2022-12-29T16:07:01.132Z,97179.69
2022-12-29T16:09:42.485Z,97169.91
2022-12-29T16:12:20.456Z,97184.50
2022-12-29T16:14:48.606Z,97185.66
2022-12-29T16:17:21.336Z,97177.72
2022-12-29T16:20:04.249Z,97172.56
2022-12-29T16:22:35.320Z,97173.34
2022-12-29T16:25:12.923Z,97167.75
2022-12-29T16:27:41.016Z,97177.22
2022-12-29T16:30:18.523Z,97175.00
2022-12-29T16:32:49.384Z,97187.19
2022-12-29T16:35:24.034Z,97180.25
2022-12-29T16:38:09.332Z,97191.31
2022-12-29T16:40:39.637Z,97188.53
2022-12-29T16:43:05.955Z,97189.25
2022-12-29T16:45:47.757Z,97185.41
2022-12-29T16:48:14.078Z,97179.97
2022-12-29T16:50:42.350Z,97189.34
2022-12-29T16:53:50.238Z,97181.03
2022-12-29T16:56:18.553Z,97178.22
2022-12-29T16:58:49.495Z,97178.63
2022-12-29T17:01:19.825Z,97175.16
2022-12-29T17:03:52.417Z,97165.34
2022-12-29T17:06:19.684Z,97170.50
2022-12-29T17:08:46.462Z,97173.91
2022-12-29T17:11:52.494Z,97169.91
2022-12-29T17:14:26.736Z,97172.09
2022-12-29T17:16:53.244Z,97175.41
2022-12-29T17:19:22.148Z,97167.59
2022-12-29T17:21:48.634Z,97176.19
2022-12-29T17:24:17.549Z,97171.94
2022-12-29T17:26:45.105Z,97179.22
2022-12-29T17:29:31.989Z,97172.38
2022-12-29T17:31:58.884Z,97169.75
2022-12-29T17:34:25.464Z,97175.72
2022-12-29T17:36:52.003Z,97170.50
2022-12-29T17:39:18.496Z,97183.34
2022-12-29T17:41:44.952Z,97180.25
2022-12-29T17:44:16.102Z,97189.59
2022-12-29T17:46:42.597Z,97178.88
2022-12-29T17:49:13.887Z,97179.75
2022-12-29T17:51:41.415Z,97185.22
2022-12-29T17:54:22.169Z,97183.38
2022-12-29T17:56:48.845Z,97189.06
2022-12-29T17:59:15.573Z,97186.13
2022-12-29T18:01:45.565Z,97183.00
2022-12-29T18:04:15.801Z,97192.47
2022-12-29T18:06:42.695Z,97188.63
2022-12-29T18:09:10.609Z,97183.88
2022-12-29T18:11:39.918Z,97205.66
2022-12-29T18:14:15.672Z,97200.97
2022-12-29T18:16:43.313Z,97212.09
2022-12-29T18:19:09.785Z,97224.38
2022-12-29T18:21:36.719Z,97221.38
2022-12-29T18:24:03.225Z,97234.69
2022-12-29T18:26:31.560Z,97224.41
2022-12-29T18:28:58.535Z,97223.63
2022-12-29T18:31:26.828Z,97228.63
2022-12-29T18:33:54.240Z,97236.06
2022-12-29T18:36:21.118Z,97234.81
2022-12-29T18:38:47.680Z,97243.28
2022-12-29T18:41:29.671Z,97237.81
2022-12-29T18:43:56.468Z,97255.31
2022-12-29T18:46:23.834Z,97257.66
2022-12-29T18:48:51.133Z,97252.56
2022-12-29T18:51:19.217Z,97255.13
2022-12-29T18:53:45.771Z,97255.41
2022-12-29T18:56:12.252Z,97252.47
2022-12-29T18:58:38.747Z,97267.63
2022-12-29T19:01:05.908Z,97262.59
2022-12-29T19:03:32.688Z,97274.31
2022-12-29T19:06:00.141Z,97265.22
2022-12-29T19:08:26.803Z,97266.44
2022-12-29T19:10:53.269Z,97266.16
2022-12-29T19:13:23.512Z,97269.19
2022-12-29T19:15:49.896Z,97274.94
2022-12-29T19:21:07.079Z,97292.59
2022-12-29T19:23:33.570Z,97306.31
2022-12-29T19:26:00.085Z,97308.66
2022-12-29T19:28:27.669Z,97320.59
2022-12-29T19:30:57.453Z,97332.19
2022-12-29T19:33:24.126Z,97322.63
2022-12-29T19:35:50.665Z,97336.56
2022-12-29T19:38:17.181Z,97347.97
2022-12-29T19:40:48.346Z,97345.94
2022-12-29T19:43:15.318Z,97358.25
2022-12-29T19:45:42.374Z,97354.81
2022-12-29T19:48:12.246Z,97357.19
2022-12-29T19:50:38.999Z,97372.34
2022-12-29T19:53:05.933Z,97366.44
2022-12-29T19:55:32.457Z,97379.25
2022-12-29T19:57:59.111Z,97370.34
2022-12-29T20:00:25.608Z,97382.06
2022-12-29T20:02:52.213Z,97366.66
2022-12-29T20:05:19.514Z,97367.41
2022-12-29T20:07:46.090Z,97368.09
2022-12-29T20:10:12.571Z,97364.88
2022-12-29T20:12:39.160Z,97354.81
2022-12-29T20:15:09.086Z,97359.28
2022-12-29T20:18:10.819Z,97362.06
2022-12-29T20:20:22.408Z,97364.69
2022-12-29T20:22:48.872Z,97362.38
2022-12-29T20:28:02.213Z,97381.69
2022-12-29T20:30:28.840Z,97370.19
2022-12-29T20:32:55.303Z,97381.44
2022-12-29T20:35:21.808Z,97378.16
2022-12-29T20:37:48.283Z,97378.94
2022-12-29T20:40:14.762Z,97383.59
2022-12-29T20:42:41.253Z,97381.22
2022-12-29T20:45:07.906Z,97382.13
2022-12-29T20:47:34.366Z,97375.59
2022-12-29T20:50:00.878Z,97398.31
2022-12-29T20:52:27.426Z,97395.78
2022-12-29T20:54:54.076Z,97377.66
2022-12-29T20:57:20.641Z,97379.59
2022-12-29T20:59:47.137Z,97382.97
2022-12-29T21:02:18.710Z,97391.22
2022-12-29T21:05:22.276Z,97383.78
2022-12-29T21:07:31.816Z,97388.00
2022-12-29T21:09:58.331Z,97388.69
2022-12-29T21:12:24.816Z,97392.94
2022-12-29T21:14:51.292Z,97384.78
2022-12-29T21:17:17.979Z,97394.53
2022-12-29T21:19:44.461Z,97400.94
2022-12-29T21:22:10.937Z,97404.06
2022-12-29T21:24:38.490Z,97405.69
2022-12-29T21:27:04.995Z,97409.91
2022-12-29T21:29:31.458Z,97415.63
2022-12-29T21:32:06.241Z,97413.00
2022-12-29T21:34:34.453Z,97407.38
2022-12-29T21:37:01.098Z,97411.16
2022-12-29T21:39:27.665Z,97419.53
2022-12-29T21:41:59.776Z,97425.09
2022-12-29T21:44:45.060Z,97423.56
2022-12-29T21:47:11.559Z,97429.44
2022-12-29T21:49:38.012Z,97418.06
2022-12-29T21:52:04.568Z,97420.13
2022-12-29T21:54:49.691Z,97419.78
2022-12-29T21:57:37.331Z,97425.06
2022-12-29T22:00:26.965Z,97429.19
2022-12-29T22:03:18.615Z,97431.72
2022-12-29T22:06:07.316Z,97425.16
2022-12-29T22:08:52.422Z,97426.22
2022-12-29T22:11:37.492Z,97432.97
2022-12-29T22:14:04.145Z,97438.16
2022-12-29T22:16:30.685Z,97436.56
2022-12-29T22:18:57.193Z,97430.81
2022-12-29T22:21:23.675Z,97446.78
2022-12-29T22:23:50.134Z,97435.63
2022-12-29T22:26:16.683Z,97440.69
2022-12-29T22:28:43.781Z,97450.34
2022-12-29T22:31:27.297Z,97451.34
2022-12-29T22:33:57.556Z,97442.41
2022-12-29T22:36:24.230Z,97442.28
2022-12-29T22:38:50.731Z,97446.31
2022-12-29T22:41:17.239Z,97439.88
2022-12-29T22:43:43.701Z,97446.75
2022-12-29T22:46:11.173Z,97445.84
2022-12-29T22:48:37.762Z,97450.34
2022-12-29T22:51:04.461Z,97446.31
2022-12-29T22:53:31.068Z,97446.41
2022-12-29T22:56:12.044Z,97455.72
2022-12-29T22:58:45.045Z,97459.75
2022-12-29T23:01:12.288Z,97455.91
2022-12-29T23:03:39.355Z,97464.09
2022-12-29T23:06:06.729Z,97448.16
2022-12-29T23:08:35.372Z,97453.53
2022-12-29T23:11:01.845Z,97459.75
2022-12-29T23:13:28.345Z,97469.41
2022-12-29T23:15:54.865Z,97472.59
2022-12-29T23:18:21.434Z,97470.88
2022-12-29T23:20:48.504Z,97477.06
2022-12-29T23:23:15.445Z,97487.72
2022-12-29T23:25:41.896Z,97494.03
2022-12-29T23:28:08.376Z,97499.22
2022-12-29T23:30:35.158Z,97496.47
2022-12-29T23:33:01.701Z,97506.00
2022-12-29T23:35:28.466Z,97499.13
2022-12-29T23:37:54.983Z,97518.03
2022-12-29T23:40:21.438Z,97517.59
2022-12-29T23:42:47.926Z,97521.50
2022-12-29T23:45:14.423Z,97533.91
2022-12-29T23:47:40.900Z,97530.09
2022-12-29T23:50:08.651Z,97527.13
2022-12-29T23:52:35.130Z,97518.06
2022-12-29T23:55:01.640Z,97525.53
2022-12-29T23:57:28.111Z,97534.47
2022-12-29T23:59:54.577Z,97528.75
